sensor_id;sensor_type;location;lat;lon;timestamp;temperature;humidity
73133;DHT22;61320;52.008;4.530;2022-07-29T00:00:12;18.52;61.30
73133;DHT22;61320;52.008;4.530;2022-07-29T00:02:37;18.51;61.55
73133;DHT22;61320;52.008;4.530;2022-07-29T00:05:04;18.47;61.74
73133;DHT22;61320;52.008;4.530;2022-07-29T00:07:30;18.48;61.89
73133;DHT22;61320;52.008;4.530;2022-07-29T00:09:55;18.44;62.07
73133;DHT22;61320;52.008;4.530;2022-07-29T00:12:22;18.48;62.52
73133;DHT22;61320;52.008;4.530;2022-07-29T00:14:48;18.50;62.03
73133;DHT22;61320;52.008;4.530;2022-07-29T00:17:14;18.50;61.41
73133;DHT22;61320;52.008;4.530;2022-07-29T00:19:39;18.50;61.51
73133;DHT22;61320;52.008;4.530;2022-07-29T00:22:05;18.45;61.64
73133;DHT22;61320;52.008;4.530;2022-07-29T00:24:30;18.45;61.54
73133;DHT22;61320;52.008;4.530;2022-07-29T00:26:56;18.45;61.89
73133;DHT22;61320;52.008;4.530;2022-07-29T00:29:21;18.47;62.33
73133;DHT22;61320;52.008;4.530;2022-07-29T00:31:47;18.44;62.49
73133;DHT22;61320;52.008;4.530;2022-07-29T00:34:13;18.41;62.05
73133;DHT22;61320;52.008;4.530;2022-07-29T00:36:57;18.40;62.49
73133;DHT22;61320;52.008;4.530;2022-07-29T00:39:23;18.34;62.63
73133;DHT22;61320;52.008;4.530;2022-07-29T00:41:49;18.33;62.19
73133;DHT22;61320;52.008;4.530;2022-07-29T00:44:15;18.26;62.12
73133;DHT22;61320;52.008;4.530;2022-07-29T00:46:40;18.26;62.54
73133;DHT22;61320;52.008;4.530;2022-07-29T00:49:06;18.26;62.47
73133;DHT22;61320;52.008;4.530;2022-07-29T00:51:36;18.17;62.59
73133;DHT22;61320;52.008;4.530;2022-07-29T00:54:02;18.18;62.24
73133;DHT22;61320;52.008;4.530;2022-07-29T00:56:30;18.10;62.53
73133;DHT22;61320;52.008;4.530;2022-07-29T00:58:57;18.06;63.23
73133;DHT22;61320;52.008;4.530;2022-07-29T01:01:22;18.09;63.33
73133;DHT22;61320;52.008;4.530;2022-07-29T01:03:48;18.13;63.94
73133;DHT22;61320;52.008;4.530;2022-07-29T01:06:17;18.10;63.25
73133;DHT22;61320;52.008;4.530;2022-07-29T01:08:45;18.07;62.92
73133;DHT22;61320;52.008;4.530;2022-07-29T01:11:11;18.06;63.57
73133;DHT22;61320;52.008;4.530;2022-07-29T01:13:38;18.03;63.62
73133;DHT22;61320;52.008;4.530;2022-07-29T01:16:13;17.94;63.76
73133;DHT22;61320;52.008;4.530;2022-07-29T01:18:45;17.90;64.03
73133;DHT22;61320;52.008;4.530;2022-07-29T01:24:29;17.86;63.74
73133;DHT22;61320;52.008;4.530;2022-07-29T01:26:33;17.85;64.01
73133;DHT22;61320;52.008;4.530;2022-07-29T01:31:43;17.80;64.38
73133;DHT22;61320;52.008;4.530;2022-07-29T01:34:17;17.82;64.57
73133;DHT22;61320;52.008;4.530;2022-07-29T01:36:48;17.80;64.47
73133;DHT22;61320;52.008;4.530;2022-07-29T01:39:36;17.82;64.23
73133;DHT22;61320;52.008;4.530;2022-07-29T01:42:24;17.79;64.36
73133;DHT22;61320;52.008;4.530;2022-07-29T01:48:05;17.80;64.74
73133;DHT22;61320;52.008;4.530;2022-07-29T01:50:34;17.78;65.25
73133;DHT22;61320;52.008;4.530;2022-07-29T01:53:05;17.73;64.46
73133;DHT22;61320;52.008;4.530;2022-07-29T01:55:36;17.72;64.93
73133;DHT22;61320;52.008;4.530;2022-07-29T01:58:05;17.68;65.13
73133;DHT22;61320;52.008;4.530;2022-07-29T02:00:33;17.66;65.31
73133;DHT22;61320;52.008;4.530;2022-07-29T02:03:04;17.63;65.36
73133;DHT22;61320;52.008;4.530;2022-07-29T02:05:33;17.65;65.24
73133;DHT22;61320;52.008;4.530;2022-07-29T02:08:02;17.65;65.56
73133;DHT22;61320;52.008;4.530;2022-07-29T02:10:32;17.63;65.80
73133;DHT22;61320;52.008;4.530;2022-07-29T02:12:59;17.65;65.64
73133;DHT22;61320;52.008;4.530;2022-07-29T02:15:30;17.66;65.58
73133;DHT22;61320;52.008;4.530;2022-07-29T02:18:05;17.66;65.61
73133;DHT22;61320;52.008;4.530;2022-07-29T02:20:32;17.68;65.84
73133;DHT22;61320;52.008;4.530;2022-07-29T02:22:59;17.66;65.41
73133;DHT22;61320;52.008;4.530;2022-07-29T02:25:26;17.68;65.39
73133;DHT22;61320;52.008;4.530;2022-07-29T02:27:54;17.62;65.24
73133;DHT22;61320;52.008;4.530;2022-07-29T02:30:22;17.56;65.39
73133;DHT22;61320;52.008;4.530;2022-07-29T02:32:50;17.55;65.61
73133;DHT22;61320;52.008;4.530;2022-07-29T02:35:18;17.51;65.56
73133;DHT22;61320;52.008;4.530;2022-07-29T02:37:46;17.48;65.34
73133;DHT22;61320;52.008;4.530;2022-07-29T02:40:38;17.48;65.47
73133;DHT22;61320;52.008;4.530;2022-07-29T02:43:06;17.51;65.57
73133;DHT22;61320;52.008;4.530;2022-07-29T02:45:32;17.45;66.44
73133;DHT22;61320;52.008;4.530;2022-07-29T02:48:05;17.48;65.75
73133;DHT22;61320;52.008;4.530;2022-07-29T02:50:38;17.42;66.22
73133;DHT22;61320;52.008;4.530;2022-07-29T02:53:18;17.43;66.48
73133;DHT22;61320;52.008;4.530;2022-07-29T02:55:57;17.45;66.27
73133;DHT22;61320;52.008;4.530;2022-07-29T02:58:29;17.43;66.18
73133;DHT22;61320;52.008;4.530;2022-07-29T03:01:03;17.39;66.58
73133;DHT22;61320;52.008;4.530;2022-07-29T03:03:34;17.35;66.43
73133;DHT22;61320;52.008;4.530;2022-07-29T03:06:03;17.34;66.57
73133;DHT22;61320;52.008;4.530;2022-07-29T03:08:31;17.30;66.26
73133;DHT22;61320;52.008;4.530;2022-07-29T03:10:57;17.25;66.46
73133;DHT22;61320;52.008;4.530;2022-07-29T03:13:24;17.21;66.79
73133;DHT22;61320;52.008;4.530;2022-07-29T03:15:51;17.18;66.63
73133;DHT22;61320;52.008;4.530;2022-07-29T03:18:17;17.11;66.72
73133;DHT22;61320;52.008;4.530;2022-07-29T03:20:43;17.12;66.84
73133;DHT22;61320;52.008;4.530;2022-07-29T03:23:09;17.08;67.39
73133;DHT22;61320;52.008;4.530;2022-07-29T03:25:35;17.06;66.88
73133;DHT22;61320;52.008;4.530;2022-07-29T03:28:00;17.06;66.92
73133;DHT22;61320;52.008;4.530;2022-07-29T03:30:26;17.03;67.23
73133;DHT22;61320;52.008;4.530;2022-07-29T03:32:52;17.01;67.65
73133;DHT22;61320;52.008;4.530;2022-07-29T03:35:19;17.03;67.03
73133;DHT22;61320;52.008;4.530;2022-07-29T03:37:44;16.99;67.24
73133;DHT22;61320;52.008;4.530;2022-07-29T03:40:13;16.93;67.19
73133;DHT22;61320;52.008;4.530;2022-07-29T03:42:42;16.91;67.30
73133;DHT22;61320;52.008;4.530;2022-07-29T03:45:12;16.94;67.42
73133;DHT22;61320;52.008;4.530;2022-07-29T03:47:42;16.91;67.72
73133;DHT22;61320;52.008;4.530;2022-07-29T03:50:11;16.91;67.64
73133;DHT22;61320;52.008;4.530;2022-07-29T03:52:39;16.90;67.34
73133;DHT22;61320;52.008;4.530;2022-07-29T03:55:06;16.91;67.52
73133;DHT22;61320;52.008;4.530;2022-07-29T03:57:34;16.87;67.15
73133;DHT22;61320;52.008;4.530;2022-07-29T04:00:02;16.87;67.37
73133;DHT22;61320;52.008;4.530;2022-07-29T04:02:29;16.84;67.67
73133;DHT22;61320;52.008;4.530;2022-07-29T04:04:55;16.81;67.95
73133;DHT22;61320;52.008;4.530;2022-07-29T04:07:21;16.83;67.72
73133;DHT22;61320;52.008;4.530;2022-07-29T04:09:46;16.85;67.93
73133;DHT22;61320;52.008;4.530;2022-07-29T04:12:12;16.83;67.43
73133;DHT22;61320;52.008;4.530;2022-07-29T04:14:38;16.83;67.77
73133;DHT22;61320;52.008;4.530;2022-07-29T04:17:06;16.83;67.60
73133;DHT22;61320;52.008;4.530;2022-07-29T04:19:33;16.77;68.00
73133;DHT22;61320;52.008;4.530;2022-07-29T04:21:59;16.79;67.86
73133;DHT22;61320;52.008;4.530;2022-07-29T04:24:25;16.76;68.02
73133;DHT22;61320;52.008;4.530;2022-07-29T04:26:51;16.79;67.50
73133;DHT22;61320;52.008;4.530;2022-07-29T04:29:17;16.83;67.33
73133;DHT22;61320;52.008;4.530;2022-07-29T04:31:43;16.84;67.54
73133;DHT22;61320;52.008;4.530;2022-07-29T04:34:09;16.83;67.73
73133;DHT22;61320;52.008;4.530;2022-07-29T04:36:35;16.87;67.86
73133;DHT22;61320;52.008;4.530;2022-07-29T04:39:01;16.93;67.77
73133;DHT22;61320;52.008;4.530;2022-07-29T04:41:27;16.94;67.52
73133;DHT22;61320;52.008;4.530;2022-07-29T04:43:53;16.94;67.32
73133;DHT22;61320;52.008;4.530;2022-07-29T04:46:18;16.95;67.56
73133;DHT22;61320;52.008;4.530;2022-07-29T04:48:47;17.00;67.71
73133;DHT22;61320;52.008;4.530;2022-07-29T04:51:13;16.97;67.32
73133;DHT22;61320;52.008;4.530;2022-07-29T04:53:39;17.00;67.71
73133;DHT22;61320;52.008;4.530;2022-07-29T04:56:04;17.06;67.34
73133;DHT22;61320;52.008;4.530;2022-07-29T04:58:30;17.06;67.05
73133;DHT22;61320;52.008;4.530;2022-07-29T05:00:55;17.03;67.09
73133;DHT22;61320;52.008;4.530;2022-07-29T05:03:21;17.04;67.49
73133;DHT22;61320;52.008;4.530;2022-07-29T05:05:46;16.99;66.87
73133;DHT22;61320;52.008;4.530;2022-07-29T05:08:12;16.94;67.35
73133;DHT22;61320;52.008;4.530;2022-07-29T05:10:37;16.90;67.43
73133;DHT22;61320;52.008;4.530;2022-07-29T05:13:05;16.93;67.40
73133;DHT22;61320;52.008;4.530;2022-07-29T05:15:32;16.94;67.53
73133;DHT22;61320;52.008;4.530;2022-07-29T05:17:57;16.91;67.46
73133;DHT22;61320;52.008;4.530;2022-07-29T05:20:23;16.99;67.08
73133;DHT22;61320;52.008;4.530;2022-07-29T05:22:54;17.03;67.44
73133;DHT22;61320;52.008;4.530;2022-07-29T05:25:19;17.08;67.34
73133;DHT22;61320;52.008;4.530;2022-07-29T05:27:45;17.11;67.16
73133;DHT22;61320;52.008;4.530;2022-07-29T05:30:11;17.17;67.28
73133;DHT22;61320;52.008;4.530;2022-07-29T05:32:36;17.25;67.17
73133;DHT22;61320;52.008;4.530;2022-07-29T05:35:02;17.32;66.49
73133;DHT22;61320;52.008;4.530;2022-07-29T05:37:27;17.39;66.61
73133;DHT22;61320;52.008;4.530;2022-07-29T05:39:53;17.53;66.20
73133;DHT22;61320;52.008;4.530;2022-07-29T05:42:18;17.65;66.05
73133;DHT22;61320;52.008;4.530;2022-07-29T05:44:43;17.79;65.06
73133;DHT22;61320;52.008;4.530;2022-07-29T05:47:09;17.92;64.57
73133;DHT22;61320;52.008;4.530;2022-07-29T05:49:38;18.01;64.69
73133;DHT22;61320;52.008;4.530;2022-07-29T05:52:04;18.13;64.36
73133;DHT22;61320;52.008;4.530;2022-07-29T05:54:29;18.24;64.19
73133;DHT22;61320;52.008;4.530;2022-07-29T05:56:55;18.30;63.44
73133;DHT22;61320;52.008;4.530;2022-07-29T05:59:21;18.40;63.62
73133;DHT22;61320;52.008;4.530;2022-07-29T06:01:46;18.47;63.89
73133;DHT22;61320;52.008;4.530;2022-07-29T06:04:12;18.52;62.90
73133;DHT22;61320;52.008;4.530;2022-07-29T06:06:37;18.61;62.90
73133;DHT22;61320;52.008;4.530;2022-07-29T06:09:03;18.72;61.56
73133;DHT22;61320;52.008;4.530;2022-07-29T06:11:28;18.79;61.45
73133;DHT22;61320;52.008;4.530;2022-07-29T06:13:54;18.88;62.01
73133;DHT22;61320;52.008;4.530;2022-07-29T06:16:19;18.95;60.56
73133;DHT22;61320;52.008;4.530;2022-07-29T06:18:45;18.98;60.56
73133;DHT22;61320;52.008;4.530;2022-07-29T06:21:11;19.09;60.51
73133;DHT22;61320;52.008;4.530;2022-07-29T06:23:37;19.13;60.97
73133;DHT22;61320;52.008;4.530;2022-07-29T06:26:03;19.17;60.12
73133;DHT22;61320;52.008;4.530;2022-07-29T06:28:29;19.16;60.67
73133;DHT22;61320;52.008;4.530;2022-07-29T06:30:54;19.13;60.56
73133;DHT22;61320;52.008;4.530;2022-07-29T06:33:20;19.13;61.38
73133;DHT22;61320;52.008;4.530;2022-07-29T06:35:45;19.19;61.15
73133;DHT22;61320;52.008;4.530;2022-07-29T06:38:13;19.16;60.77
73133;DHT22;61320;52.008;4.530;2022-07-29T06:40:43;19.17;60.55
73133;DHT22;61320;52.008;4.530;2022-07-29T06:43:38;19.22;60.53
73133;DHT22;61320;52.008;4.530;2022-07-29T06:46:24;19.22;61.08
73133;DHT22;61320;52.008;4.530;2022-07-29T06:48:50;19.26;62.30
73133;DHT22;61320;52.008;4.530;2022-07-29T06:51:16;19.37;61.12
73133;DHT22;61320;52.008;4.530;2022-07-29T06:53:41;19.46;60.33
73133;DHT22;61320;52.008;4.530;2022-07-29T06:56:07;19.57;59.98
73133;DHT22;61320;52.008;4.530;2022-07-29T06:58:37;19.66;60.62
73133;DHT22;61320;52.008;4.530;2022-07-29T07:01:05;19.74;59.68
73133;DHT22;61320;52.008;4.530;2022-07-29T07:03:31;19.81;59.31
73133;DHT22;61320;52.008;4.530;2022-07-29T07:05:57;19.85;58.12
73133;DHT22;61320;52.008;4.530;2022-07-29T07:08:25;19.88;59.58
73133;DHT22;61320;52.008;4.530;2022-07-29T07:10:52;19.98;59.02
73133;DHT22;61320;52.008;4.530;2022-07-29T07:13:18;20.11;57.99
73133;DHT22;61320;52.008;4.530;2022-07-29T07:15:44;20.12;59.45
73133;DHT22;61320;52.008;4.530;2022-07-29T07:18:10;20.19;60.11
73133;DHT22;61320;52.008;4.530;2022-07-29T07:20:36;20.15;59.50
73133;DHT22;61320;52.008;4.530;2022-07-29T07:23:03;20.21;59.70
73133;DHT22;61320;52.008;4.530;2022-07-29T07:25:28;20.16;58.19
73133;DHT22;61320;52.008;4.530;2022-07-29T07:27:54;20.15;59.56
73133;DHT22;61320;52.008;4.530;2022-07-29T07:30:19;20.11;59.89
73133;DHT22;61320;52.008;4.530;2022-07-29T07:32:45;20.09;58.36
73133;DHT22;61320;52.008;4.530;2022-07-29T07:35:11;20.05;59.90
73133;DHT22;61320;52.008;4.530;2022-07-29T07:37:37;19.99;58.74
73133;DHT22;61320;52.008;4.530;2022-07-29T07:40:03;19.92;59.60
73133;DHT22;61320;52.008;4.530;2022-07-29T07:42:30;19.89;60.42
73133;DHT22;61320;52.008;4.530;2022-07-29T07:44:55;19.92;58.39
73133;DHT22;61320;52.008;4.530;2022-07-29T07:47:21;19.94;58.50
73133;DHT22;61320;52.008;4.530;2022-07-29T07:49:52;20.09;59.96
73133;DHT22;61320;52.008;4.530;2022-07-29T07:52:20;20.19;59.35
73133;DHT22;61320;52.008;4.530;2022-07-29T07:54:46;20.42;59.26
73133;DHT22;61320;52.008;4.530;2022-07-29T07:57:12;20.59;59.74
73133;DHT22;61320;52.008;4.530;2022-07-29T07:59:38;20.72;58.91
73133;DHT22;61320;52.008;4.530;2022-07-29T08:02:04;20.81;56.96
73133;DHT22;61320;52.008;4.530;2022-07-29T08:04:30;20.90;56.84
73133;DHT22;61320;52.008;4.530;2022-07-29T08:06:57;20.98;56.50
73133;DHT22;61320;52.008;4.530;2022-07-29T08:09:25;20.98;56.34
73133;DHT22;61320;52.008;4.530;2022-07-29T08:11:51;21.04;55.95
73133;DHT22;61320;52.008;4.530;2022-07-29T08:14:20;21.12;56.93
73133;DHT22;61320;52.008;4.530;2022-07-29T08:16:46;21.21;56.68
73133;DHT22;61320;52.008;4.530;2022-07-29T08:19:12;21.27;57.53
73133;DHT22;61320;52.008;4.530;2022-07-29T08:21:37;21.34;56.55
73133;DHT22;61320;52.008;4.530;2022-07-29T08:24:03;21.48;56.63
73133;DHT22;61320;52.008;4.530;2022-07-29T08:26:48;21.61;56.59
73133;DHT22;61320;52.008;4.530;2022-07-29T08:29:13;21.71;55.49
73133;DHT22;61320;52.008;4.530;2022-07-29T08:31:40;21.83;56.11
73133;DHT22;61320;52.008;4.530;2022-07-29T08:34:08;21.97;55.41
73133;DHT22;61320;52.008;4.530;2022-07-29T08:36:37;22.09;54.49
73133;DHT22;61320;52.008;4.530;2022-07-29T08:39:03;22.20;55.33
73133;DHT22;61320;52.008;4.530;2022-07-29T08:41:29;22.36;54.25
73133;DHT22;61320;52.008;4.530;2022-07-29T08:43:58;22.48;54.36
73133;DHT22;61320;52.008;4.530;2022-07-29T08:46:24;22.64;55.43
73133;DHT22;61320;52.008;4.530;2022-07-29T08:48:49;22.82;54.34
73133;DHT22;61320;52.008;4.530;2022-07-29T08:51:19;23.10;53.44
73133;DHT22;61320;52.008;4.530;2022-07-29T08:53:49;23.19;52.72
73133;DHT22;61320;52.008;4.530;2022-07-29T08:56:19;23.34;53.21
73133;DHT22;61320;52.008;4.530;2022-07-29T08:58:47;23.43;52.04
73133;DHT22;61320;52.008;4.530;2022-07-29T09:01:24;23.57;50.88
73133;DHT22;61320;52.008;4.530;2022-07-29T09:04:02;23.63;51.38
73133;DHT22;61320;52.008;4.530;2022-07-29T09:06:39;23.66;52.73
73133;DHT22;61320;52.008;4.530;2022-07-29T09:09:16;23.77;51.82
73133;DHT22;61320;52.008;4.530;2022-07-29T09:12:02;23.87;52.97
73133;DHT22;61320;52.008;4.530;2022-07-29T09:14:29;23.93;52.20
73133;DHT22;61320;52.008;4.530;2022-07-29T09:16:56;23.94;52.21
73133;DHT22;61320;52.008;4.530;2022-07-29T09:19:27;23.95;52.81
73133;DHT22;61320;52.008;4.530;2022-07-29T09:21:59;23.81;52.42
73133;DHT22;61320;52.008;4.530;2022-07-29T09:27:12;23.71;52.90
73133;DHT22;61320;52.008;4.530;2022-07-29T09:29:43;23.70;53.53
73133;DHT22;61320;52.008;4.530;2022-07-29T09:32:14;23.74;53.30
73133;DHT22;61320;52.008;4.530;2022-07-29T09:34:40;23.78;54.01
73133;DHT22;61320;52.008;4.530;2022-07-29T09:37:06;23.75;54.59
73133;DHT22;61320;52.008;4.530;2022-07-29T09:39:33;23.79;53.61
73133;DHT22;61320;52.008;4.530;2022-07-29T09:42:03;23.98;54.17
73133;DHT22;61320;52.008;4.530;2022-07-29T09:44:47;24.00;50.75
73133;DHT22;61320;52.008;4.530;2022-07-29T09:47:19;23.87;52.71
73133;DHT22;61320;52.008;4.530;2022-07-29T09:49:57;23.89;53.30
73133;DHT22;61320;52.008;4.530;2022-07-29T09:52:26;23.88;51.62
73133;DHT22;61320;52.008;4.530;2022-07-29T09:54:53;23.87;51.76
73133;DHT22;61320;52.008;4.530;2022-07-29T09:57:28;23.84;52.90
73133;DHT22;61320;52.008;4.530;2022-07-29T10:00:07;23.87;53.73
73133;DHT22;61320;52.008;4.530;2022-07-29T10:02:36;23.97;54.00
73133;DHT22;61320;52.008;4.530;2022-07-29T10:05:04;24.00;52.12
73133;DHT22;61320;52.008;4.530;2022-07-29T10:07:54;24.08;51.65
73133;DHT22;61320;52.008;4.530;2022-07-29T10:10:29;24.21;51.27
73133;DHT22;61320;52.008;4.530;2022-07-29T10:12:57;24.26;52.93
73133;DHT22;61320;52.008;4.530;2022-07-29T10:15:25;24.37;50.54
73133;DHT22;61320;52.008;4.530;2022-07-29T10:17:53;24.48;51.03
73133;DHT22;61320;52.008;4.530;2022-07-29T10:20:23;24.65;50.39
73133;DHT22;61320;52.008;4.530;2022-07-29T10:22:50;25.00;48.87
73133;DHT22;61320;52.008;4.530;2022-07-29T10:25:17;25.18;49.13
73133;DHT22;61320;52.008;4.530;2022-07-29T10:27:45;25.55;46.86
73133;DHT22;61320;52.008;4.530;2022-07-29T10:30:13;26.16;47.25
73133;DHT22;61320;52.008;4.530;2022-07-29T10:32:57;27.56;44.01
73133;DHT22;61320;52.008;4.530;2022-07-29T10:35:56;29.81;39.04
73133;DHT22;61320;52.008;4.530;2022-07-29T10:38:43;32.05;35.69
73133;DHT22;61320;52.008;4.530;2022-07-29T10:41:32;33.97;32.22
73133;DHT22;61320;52.008;4.530;2022-07-29T10:44:11;35.71;30.71
73133;DHT22;61320;52.008;4.530;2022-07-29T10:46:41;37.19;28.62
73133;DHT22;61320;52.008;4.530;2022-07-29T10:54:44;40.04;24.71
73133;DHT22;61320;52.008;4.530;2022-07-29T10:57:28;40.33;23.50
73133;DHT22;61320;52.008;4.530;2022-07-29T11:04:59;41.86;23.09
73133;DHT22;61320;52.008;4.530;2022-07-29T11:07:25;42.33;22.70
73133;DHT22;61320;52.008;4.530;2022-07-29T11:15:04;43.23;20.05
73133;DHT22;61320;52.008;4.530;2022-07-29T11:20:45;43.57;21.79
73133;DHT22;61320;52.008;4.530;2022-07-29T11:31:31;43.47;20.55
73133;DHT22;61320;52.008;4.530;2022-07-29T11:34:17;43.26;20.98
73133;DHT22;61320;52.008;4.530;2022-07-29T11:39:47;43.20;19.48
73133;DHT22;61320;52.008;4.530;2022-07-29T11:45:20;41.76;20.47
73133;DHT22;61320;52.008;4.530;2022-07-29T11:47:51;41.71;20.57
73133;DHT22;61320;52.008;4.530;2022-07-29T11:50:36;41.75;21.73
73133;DHT22;61320;52.008;4.530;2022-07-29T11:53:12;41.61;22.23
73133;DHT22;61320;52.008;4.530;2022-07-29T11:55:40;41.96;19.68
73133;DHT22;61320;52.008;4.530;2022-07-29T11:58:05;41.97;20.34
73133;DHT22;61320;52.008;4.530;2022-07-29T12:00:32;41.99;19.55
73133;DHT22;61320;52.008;4.530;2022-07-29T12:03:00;42.16;22.84
73133;DHT22;61320;52.008;4.530;2022-07-29T12:05:43;42.57;20.00
73133;DHT22;61320;52.008;4.530;2022-07-29T12:08:16;42.04;20.01
73133;DHT22;61320;52.008;4.530;2022-07-29T12:10:44;42.20;20.95
73133;DHT22;61320;52.008;4.530;2022-07-29T12:13:12;42.06;19.89
73133;DHT22;61320;52.008;4.530;2022-07-29T12:15:38;42.10;19.40
73133;DHT22;61320;52.008;4.530;2022-07-29T12:18:23;42.24;18.51
73133;DHT22;61320;52.008;4.530;2022-07-29T12:20:56;41.92;18.58
73133;DHT22;61320;52.008;4.530;2022-07-29T12:23:22;41.30;20.38
73133;DHT22;61320;52.008;4.530;2022-07-29T12:25:48;40.66;22.38
73133;DHT22;61320;52.008;4.530;2022-07-29T12:28:14;40.42;21.25
73133;DHT22;61320;52.008;4.530;2022-07-29T12:35:42;38.86;22.63
73133;DHT22;61320;52.008;4.530;2022-07-29T12:38:10;38.13;23.63
73133;DHT22;61320;52.008;4.530;2022-07-29T12:40:36;37.12;25.46
73133;DHT22;61320;52.008;4.530;2022-07-29T12:43:09;37.00;24.72
73133;DHT22;61320;52.008;4.530;2022-07-29T12:45:35;36.84;25.68
73133;DHT22;61320;52.008;4.530;2022-07-29T12:48:01;35.65;26.70
73133;DHT22;61320;52.008;4.530;2022-07-29T12:50:27;34.61;27.97
73133;DHT22;61320;52.008;4.530;2022-07-29T12:52:52;33.92;29.27
73133;DHT22;61320;52.008;4.530;2022-07-29T12:55:38;33.31;30.91
73133;DHT22;61320;52.008;4.530;2022-07-29T12:58:04;32.92;31.05
73133;DHT22;61320;52.008;4.530;2022-07-29T13:00:30;32.54;30.90
73133;DHT22;61320;52.008;4.530;2022-07-29T13:02:58;32.34;33.40
73133;DHT22;61320;52.008;4.530;2022-07-29T13:05:24;31.88;32.70
73133;DHT22;61320;52.008;4.530;2022-07-29T13:08:29;31.07;33.06
73133;DHT22;61320;52.008;4.530;2022-07-29T13:10:55;30.68;33.76
73133;DHT22;61320;52.008;4.530;2022-07-29T13:13:20;30.37;35.78
73133;DHT22;61320;52.008;4.530;2022-07-29T13:15:46;30.03;35.94
73133;DHT22;61320;52.008;4.530;2022-07-29T13:18:32;29.88;35.12
73133;DHT22;61320;52.008;4.530;2022-07-29T13:21:13;29.62;35.85
73133;DHT22;61320;52.008;4.530;2022-07-29T13:23:39;29.55;38.05
73133;DHT22;61320;52.008;4.530;2022-07-29T13:26:09;29.66;36.92
73133;DHT22;61320;52.008;4.530;2022-07-29T13:28:36;29.66;35.43
73133;DHT22;61320;52.008;4.530;2022-07-29T13:31:02;29.66;37.06
73133;DHT22;61320;52.008;4.530;2022-07-29T13:33:27;29.76;36.55
73133;DHT22;61320;52.008;4.530;2022-07-29T13:35:53;29.86;32.82
73133;DHT22;61320;52.008;4.530;2022-07-29T13:38:18;29.55;35.53
73133;DHT22;61320;52.008;4.530;2022-07-29T13:40:46;29.35;36.85
73133;DHT22;61320;52.008;4.530;2022-07-29T13:43:14;29.39;37.14
73133;DHT22;61320;52.008;4.530;2022-07-29T13:45:40;29.54;36.80
73133;DHT22;61320;52.008;4.530;2022-07-29T13:48:06;29.68;34.09
73133;DHT22;61320;52.008;4.530;2022-07-29T13:50:32;29.31;34.30
73133;DHT22;61320;52.008;4.530;2022-07-29T13:52:58;29.28;36.53
73133;DHT22;61320;52.008;4.530;2022-07-29T13:55:24;29.35;37.83
73133;DHT22;61320;52.008;4.530;2022-07-29T13:57:52;29.50;37.85
73133;DHT22;61320;52.008;4.530;2022-07-29T14:00:18;29.57;37.04
73133;DHT22;61320;52.008;4.530;2022-07-29T14:02:44;29.63;36.25
73133;DHT22;61320;52.008;4.530;2022-07-29T14:05:09;29.61;36.58
73133;DHT22;61320;52.008;4.530;2022-07-29T14:07:38;29.54;37.95
73133;DHT22;61320;52.008;4.530;2022-07-29T14:10:04;29.48;36.92
73133;DHT22;61320;52.008;4.530;2022-07-29T14:12:30;29.55;37.06
73133;DHT22;61320;52.008;4.530;2022-07-29T14:14:55;29.57;36.07
73133;DHT22;61320;52.008;4.530;2022-07-29T14:17:22;29.55;36.24
73133;DHT22;61320;52.008;4.530;2022-07-29T14:19:48;29.54;36.38
73133;DHT22;61320;52.008;4.530;2022-07-29T14:22:14;29.41;36.61
73133;DHT22;61320;52.008;4.530;2022-07-29T14:24:40;29.30;36.65
73133;DHT22;61320;52.008;4.530;2022-07-29T14:27:07;29.32;36.85
73133;DHT22;61320;52.008;4.530;2022-07-29T14:29:33;29.37;36.67
73133;DHT22;61320;52.008;4.530;2022-07-29T14:31:59;29.42;38.05
73133;DHT22;61320;52.008;4.530;2022-07-29T14:34:28;29.41;35.73
73133;DHT22;61320;52.008;4.530;2022-07-29T14:36:53;29.32;36.75
73133;DHT22;61320;52.008;4.530;2022-07-29T14:39:21;29.31;37.10
73133;DHT22;61320;52.008;4.530;2022-07-29T14:41:49;29.31;35.71
73133;DHT22;61320;52.008;4.530;2022-07-29T14:44:14;29.30;36.35
73133;DHT22;61320;52.008;4.530;2022-07-29T14:46:40;29.34;36.51
73133;DHT22;61320;52.008;4.530;2022-07-29T14:49:13;29.39;36.03
73133;DHT22;61320;52.008;4.530;2022-07-29T14:51:38;29.47;36.46
73133;DHT22;61320;52.008;4.530;2022-07-29T14:54:04;29.48;36.59
73133;DHT22;61320;52.008;4.530;2022-07-29T14:56:29;29.45;36.29
73133;DHT22;61320;52.008;4.530;2022-07-29T14:58:56;29.51;36.89
73133;DHT22;61320;52.008;4.530;2022-07-29T15:01:23;29.47;37.27
73133;DHT22;61320;52.008;4.530;2022-07-29T15:03:48;29.38;37.99
73133;DHT22;61320;52.008;4.530;2022-07-29T15:06:14;29.20;36.07
73133;DHT22;61320;52.008;4.530;2022-07-29T15:08:39;29.11;37.08
73133;DHT22;61320;52.008;4.530;2022-07-29T15:11:05;29.14;38.40
73133;DHT22;61320;52.008;4.530;2022-07-29T15:13:31;29.23;37.35
73133;DHT22;61320;52.008;4.530;2022-07-29T15:15:56;29.23;36.68
73133;DHT22;61320;52.008;4.530;2022-07-29T15:18:21;29.23;36.07
73133;DHT22;61320;52.008;4.530;2022-07-29T15:20:47;29.27;35.45
73133;DHT22;61320;52.008;4.530;2022-07-29T15:23:12;29.23;36.23
73133;DHT22;61320;52.008;4.530;2022-07-29T15:25:38;29.14;36.81
73133;DHT22;61320;52.008;4.530;2022-07-29T15:28:06;28.99;36.08
73133;DHT22;61320;52.008;4.530;2022-07-29T15:30:33;28.84;37.09
73133;DHT22;61320;52.008;4.530;2022-07-29T15:33:05;28.83;37.79
73133;DHT22;61320;52.008;4.530;2022-07-29T15:35:31;28.84;38.01
73133;DHT22;61320;52.008;4.530;2022-07-29T15:37:56;28.80;37.59
73133;DHT22;61320;52.008;4.530;2022-07-29T15:40:22;28.83;37.13
73133;DHT22;61320;52.008;4.530;2022-07-29T15:42:47;28.92;37.05
73133;DHT22;61320;52.008;4.530;2022-07-29T15:45:12;28.82;36.95
73133;DHT22;61320;52.008;4.530;2022-07-29T15:47:38;28.76;36.25
73133;DHT22;61320;52.008;4.530;2022-07-29T15:50:07;28.59;36.22
73133;DHT22;61320;52.008;4.530;2022-07-29T15:52:37;28.42;38.01
73133;DHT22;61320;52.008;4.530;2022-07-29T15:55:03;28.42;38.19
73133;DHT22;61320;52.008;4.530;2022-07-29T15:57:29;28.35;37.19
73133;DHT22;61320;52.008;4.530;2022-07-29T15:59:55;28.16;38.29
73133;DHT22;61320;52.008;4.530;2022-07-29T16:02:21;28.11;38.78
73133;DHT22;61320;52.008;4.530;2022-07-29T16:04:47;28.14;38.56
73133;DHT22;61320;52.008;4.530;2022-07-29T16:07:13;28.12;37.48
73133;DHT22;61320;52.008;4.530;2022-07-29T16:09:39;28.04;38.67
73133;DHT22;61320;52.008;4.530;2022-07-29T16:12:05;28.09;38.96
73133;DHT22;61320;52.008;4.530;2022-07-29T16:14:30;27.94;38.40
73133;DHT22;61320;52.008;4.530;2022-07-29T16:16:56;27.86;37.24
73133;DHT22;61320;52.008;4.530;2022-07-29T16:19:21;27.73;38.13
73133;DHT22;61320;52.008;4.530;2022-07-29T16:21:46;27.67;38.77
73133;DHT22;61320;52.008;4.530;2022-07-29T16:24:12;27.57;38.55
73133;DHT22;61320;52.008;4.530;2022-07-29T16:26:37;27.42;39.84